Time;durP1;ratioP1;P1;durP2;ratioP2;P2;SDS_P1;SDS_P2;PMS_P1;PMS_P2;Temp;Humidity;BMP_temperature;BMP_pressure;BME280_temperature;BME280_humidity;BME280_pressure;Samples;Min_cycle;Max_cycle;Signal;HPM_P1;HPM_P2
2022/12/08 00:01:45;;;;;;;50.33;31.45;;;8.20;99.90;;;;;;5113896;28;20042;-48
2022/12/08 00:04:11;;;;;;;45.83;28.88;;;8.10;99.90;;;;;;5113615;28;20472;-48
2022/12/08 00:09:36;;;;;;;49.65;29.02;;;8.10;99.90;;;;;;5114371;28;20096;-48
2022/12/08 00:12:05;;;;;;;43.92;27.83;;;7.90;99.90;;;;;;5073944;28;20051;-47
2022/12/08 00:14:34;;;;;;;49.60;30.55;;;7.80;99.90;;;;;;5070830;28;20062;-47
2022/12/08 00:17:00;;;;;;;47.55;28.05;;;7.90;99.90;;;;;;5070921;28;20032;-47
2022/12/08 00:19:27;;;;;;;45.45;29.55;;;8.10;99.90;;;;;;5070870;28;20051;-47
2022/12/08 00:21:53;;;;;;;41.40;27.70;;;8.20;99.90;;;;;;5070645;28;20103;-47
2022/12/08 00:24:20;;;;;;;42.05;26.92;;;8.40;99.90;;;;;;5070895;28;20471;-47
2022/12/08 00:26:46;;;;;;;45.30;28.92;;;8.50;99.90;;;;;;5070858;28;20508;-47
2022/12/08 00:29:12;;;;;;;46.90;27.88;;;8.70;99.90;;;;;;5070741;28;20121;-47
2022/12/08 00:31:38;;;;;;;43.17;28.67;;;8.60;99.90;;;;;;5037348;28;20064;-48
2022/12/08 00:34:04;;;;;;;42.53;27.52;;;8.60;99.90;;;;;;5037470;28;20074;-47
2022/12/08 00:36:31;;;;;;;42.88;26.30;;;8.50;99.90;;;;;;5070911;28;20032;-48
2022/12/08 00:38:57;;;;;;;42.58;26.80;;;8.60;99.90;;;;;;5037230;28;20043;-47
2022/12/08 00:44:12;;;;;;;54.90;31.27;;;8.50;99.90;;;;;;5090559;28;20043;-47
2022/12/08 00:46:38;;;;;;;56.97;31.33;;;8.30;99.90;;;;;;5112724;28;20122;-47
2022/12/08 00:49:05;;;;;;;65.03;33.03;;;8.20;99.90;;;;;;5117506;28;20054;-47
2022/12/08 00:51:31;;;;;;;65.28;32.65;;;8.20;99.90;;;;;;5117509;28;20033;-47
2022/12/08 00:53:57;;;;;;;68.25;34.58;;;8.20;99.90;;;;;;5117601;28;20375;-48
2022/12/08 00:56:25;;;;;;;65.07;37.30;;;8.20;99.90;;;;;;5115675;28;20039;-47
2022/12/08 00:58:51;;;;;;;56.65;32.65;;;8.20;99.90;;;;;;5117586;28;20031;-47
2022/12/08 01:01:16;;;;;;;58.22;31.70;;;8.40;99.90;;;;;;5117297;28;20390;-47
2022/12/08 01:03:43;;;;;;;51.28;31.10;;;8.50;99.90;;;;;;5117457;28;20415;-47
2022/12/08 01:06:09;;;;;;;51.63;31.17;;;8.40;99.90;;;;;;5117309;27;20062;-47
2022/12/08 01:08:36;;;;;;;48.75;29.10;;;8.30;99.90;;;;;;5098402;28;20047;-47
2022/12/08 01:11:17;;;;;;;53.00;29.48;;;8.10;99.90;;;;;;5117255;28;20119;-47
2022/12/08 01:13:42;;;;;;;52.92;30.83;;;8.00;99.90;;;;;;5117613;28;20032;-46
2022/12/08 01:16:09;;;;;;;53.58;29.85;;;8.00;99.90;;;;;;5064527;28;20503;-47
2022/12/08 01:18:35;;;;;;;55.85;29.85;;;8.10;99.90;;;;;;5117220;28;20582;-47
2022/12/08 01:21:06;;;;;;;48.05;31.85;;;8.00;99.90;;;;;;5116899;28;20039;-46
2022/12/08 01:23:32;;;;;;;48.22;30.80;;;8.10;99.90;;;;;;5117100;28;20152;-47
2022/12/08 01:26:06;;;;;;;48.63;31.90;;;8.10;99.90;;;;;;5116804;28;20027;-47
2022/12/08 01:28:32;;;;;;;47.53;29.85;;;8.10;99.90;;;;;;5114977;28;20047;-47
2022/12/08 01:30:59;;;;;;;50.50;30.27;;;8.20;99.90;;;;;;5116860;28;20037;-48
2022/12/08 01:33:26;;;;;;;46.92;30.27;;;8.20;99.90;;;;;;5116870;28;20030;-46
2022/12/08 01:35:52;;;;;;;45.72;28.67;;;8.20;99.90;;;;;;5116758;27;20364;-46
2022/12/08 01:38:18;;;;;;;48.15;29.60;;;8.20;99.90;;;;;;5117027;28;20036;-47
2022/12/08 01:40:44;;;;;;;41.22;27.98;;;8.20;99.90;;;;;;5116782;28;20043;-47
2022/12/08 01:43:16;;;;;;;37.22;26.67;;;8.20;99.90;;;;;;5116701;28;20067;-47
2022/12/08 01:45:42;;;;;;;39.10;27.15;;;8.20;99.90;;;;;;5114678;28;20708;-49
2022/12/08 01:48:14;;;;;;;39.83;27.45;;;8.20;99.90;;;;;;5116833;28;20036;-47
2022/12/08 01:50:41;;;;;;;37.30;26.17;;;8.20;99.90;;;;;;5116406;28;20032;-47
2022/12/08 01:53:15;;;;;;;39.22;25.88;;;8.10;99.90;;;;;;5116338;28;20122;-47
2022/12/08 01:55:48;;;;;;;36.20;25.85;;;8.10;99.90;;;;;;5115139;28;20396;-47
2022/12/08 01:58:21;;;;;;;34.08;23.48;;;8.20;99.90;;;;;;5116142;28;20036;-47
2022/12/08 02:00:48;;;;;;;32.40;23.13;;;8.00;99.90;;;;;;5115270;28;20043;-48
2022/12/08 02:03:30;;;;;;;34.00;24.67;;;8.00;99.90;;;;;;5116740;28;20053;-48
2022/12/08 02:05:57;;;;;;;40.03;24.73;;;7.90;99.90;;;;;;5114225;28;20070;-47
2022/12/08 02:08:23;;;;;;;32.55;23.30;;;7.90;99.90;;;;;;5116034;28;20028;-47
2022/12/08 02:10:51;;;;;;;34.70;24.02;;;8.00;99.90;;;;;;5097073;28;20398;-47
2022/12/08 02:13:19;;;;;;;34.47;24.92;;;7.70;99.90;;;;;;5116214;28;20043;-46
2022/12/08 02:15:56;;;;;;;34.95;25.25;;;7.80;99.90;;;;;;5115837;28;20051;-46
2022/12/08 02:18:28;;;;;;;34.90;22.17;;;7.60;99.90;;;;;;5116200;28;20119;-47
2022/12/08 02:21:05;;;;;;;34.53;24.23;;;7.50;99.90;;;;;;5113833;28;20451;-47
2022/12/08 02:23:42;;;;;;;32.47;23.13;;;7.60;99.90;;;;;;5115745;28;20035;-47
2022/12/08 02:26:32;;;;;;;33.97;22.30;;;7.50;99.90;;;;;;5115760;28;20081;-47
2022/12/08 02:28:58;;;;;;;29.27;21.10;;;7.30;99.90;;;;;;5115784;28;20071;-47
2022/12/08 02:31:36;;;;;;;28.15;21.00;;;7.30;99.90;;;;;;5115584;28;20483;-47
2022/12/08 02:34:11;;;;;;;26.65;20.08;;;7.40;99.90;;;;;;5113719;28;20100;-47
2022/12/08 02:36:47;;;;;;;29.13;21.58;;;7.30;99.90;;;;;;5113833;28;20036;-48
2022/12/08 02:39:27;;;;;;;31.20;21.55;;;7.50;99.90;;;;;;5096403;28;20042;-47
2022/12/08 02:42:04;;;;;;;30.20;21.85;;;7.70;99.90;;;;;;5115624;28;20023;-48
2022/12/08 02:44:46;;;;;;;30.63;19.75;;;7.60;99.90;;;;;;5115346;28;20032;-47
2022/12/08 02:47:17;;;;;;;30.25;21.05;;;7.60;99.90;;;;;;5113565;28;20490;-46
2022/12/08 02:49:43;;;;;;;28.98;21.58;;;7.70;99.90;;;;;;5096404;28;20115;-47
2022/12/08 02:52:12;;;;;;;27.92;21.20;;;7.60;99.90;;;;;;5115326;28;20063;-47
2022/12/08 02:54:45;;;;;;;24.63;18.55;;;7.70;99.90;;;;;;5113453;28;20040;-47
2022/12/08 02:57:48;;;;;;;27.20;20.25;;;7.70;99.90;;;;;;5115320;28;20074;-47
2022/12/08 03:00:17;;;;;;;25.65;19.73;;;7.70;99.90;;;;;;5113331;28;20388;-47
2022/12/08 03:03:02;;;;;;;25.23;19.50;;;7.80;99.90;;;;;;5096372;28;20415;-47
2022/12/08 03:05:49;;;;;;;26.92;20.17;;;7.70;99.90;;;;;;5113073;28;20372;-47
2022/12/08 03:08:24;;;;;;;28.35;21.70;;;7.70;99.90;;;;;;5113137;28;20063;-47
2022/12/08 03:11:19;;;;;;;32.40;22.92;;;7.80;99.90;;;;;;5114955;28;20027;-47
2022/12/08 03:13:50;;;;;;;28.27;20.23;;;7.80;99.90;;;;;;5114885;28;20028;-46
2022/12/08 03:16:21;;;;;;;26.67;20.63;;;7.60;99.90;;;;;;5114818;28;20034;-47
2022/12/08 03:18:51;;;;;;;29.85;21.85;;;7.70;99.90;;;;;;5115120;28;20077;-47
2022/12/08 03:21:19;;;;;;;26.05;20.75;;;7.80;99.90;;;;;;5114679;28;20065;-47
2022/12/08 03:23:49;;;;;;;28.60;21.58;;;7.80;99.90;;;;;;5114643;28;20031;-47
2022/12/08 03:26:48;;;;;;;29.75;22.73;;;7.60;99.90;;;;;;5114782;28;20118;-47
2022/12/08 03:29:15;;;;;;;28.05;22.15;;;7.60;99.90;;;;;;5112088;28;20399;-48
2022/12/08 03:31:51;;;;;;;29.92;23.65;;;7.60;99.90;;;;;;5114273;28;20433;-46
2022/12/08 03:34:18;;;;;;;32.90;23.65;;;7.70;99.90;;;;;;5114533;28;20027;-47
2022/12/08 03:36:44;;;;;;;34.83;23.80;;;7.60;99.90;;;;;;5114423;28;20524;-46
2022/12/08 03:39:11;;;;;;;29.23;22.25;;;7.60;99.90;;;;;;5114307;28;20059;-47
2022/12/08 03:41:37;;;;;;;26.73;20.27;;;7.80;99.90;;;;;;5112347;28;20071;-47
2022/12/08 03:44:02;;;;;;;27.65;19.95;;;7.80;99.90;;;;;;5114676;28;20031;-47
2022/12/08 03:46:30;;;;;;;30.05;23.25;;;7.60;99.90;;;;;;5091445;28;20523;-47
2022/12/08 03:48:56;;;;;;;37.35;24.45;;;7.60;99.90;;;;;;5092532;28;20063;-47
2022/12/08 03:51:22;;;;;;;28.23;20.63;;;7.60;99.90;;;;;;5076409;28;20040;-47
2022/12/08 03:53:48;;;;;;;26.50;20.60;;;7.60;99.90;;;;;;5092907;28;20036;-47
2022/12/08 03:56:33;;;;;;;30.98;20.55;;;7.50;99.90;;;;;;5091510;28;20403;-47
2022/12/08 03:58:59;;;;;;;30.58;21.80;;;7.60;99.90;;;;;;5091489;28;20028;-47
2022/12/08 04:01:26;;;;;;;28.58;21.23;;;7.70;99.90;;;;;;5091632;28;20415;-48
2022/12/08 04:03:52;;;;;;;27.55;20.48;;;7.60;99.90;;;;;;5091203;28;20071;-47
2022/12/08 04:06:18;;;;;;;28.65;21.60;;;7.60;99.90;;;;;;5091302;28;20043;-47
2022/12/08 04:08:44;;;;;;;31.92;23.50;;;7.60;99.90;;;;;;5091300;28;20059;-47
2022/12/08 04:11:11;;;;;;;26.35;20.75;;;7.60;99.90;;;;;;5091277;28;20120;-47
2022/12/08 04:13:38;;;;;;;27.20;20.63;;;7.60;99.90;;;;;;5091247;28;20056;-46
2022/12/08 04:16:04;;;;;;;27.15;21.17;;;7.60;99.90;;;;;;5088426;28;20110;-46
2022/12/08 04:18:31;;;;;;;28.05;21.48;;;7.50;99.90;;;;;;5093526;28;20049;-48
2022/12/08 04:20:57;;;;;;;28.75;22.08;;;7.40;99.90;;;;;;5113565;28;20039;-47
2022/12/08 04:23:23;;;;;;;28.77;21.75;;;;;;;;;;5113180;28;20034;-46
2022/12/08 04:25:51;;;;;;;27.35;20.05;;;7.00;99.90;;;;;;5114005;28;20032;-46
2022/12/08 04:28:17;;;;;;;25.55;17.85;;;;;;;;;;5113400;28;20116;-47
2022/12/08 04:30:42;;;;;;;32.40;21.95;;;6.50;99.90;;;;;;5094526;28;20038;-47
2022/12/08 04:33:08;;;;;;;29.48;21.65;;;6.60;99.90;;;;;;5113709;28;20386;-47
2022/12/08 04:35:34;;;;;;;30.50;21.88;;;6.60;99.90;;;;;;5113433;28;20031;-48
2022/12/08 04:38:00;;;;;;;30.15;22.13;;;6.60;99.90;;;;;;5113360;28;20032;-47
2022/12/08 04:40:25;;;;;;;30.60;22.95;;;6.70;99.90;;;;;;5113659;28;20058;-48
2022/12/08 04:42:51;;;;;;;33.08;24.30;;;6.80;99.90;;;;;;5111852;28;20437;-47
2022/12/08 04:45:17;;;;;;;58.70;52.58;;;7.10;99.90;;;;;;5113601;28;20040;-48
2022/12/08 04:47:42;;;;;;;38.53;30.50;;;7.40;99.90;;;;;;5090642;28;20047;-47
2022/12/08 04:50:09;;;;;;;31.08;23.80;;;7.50;99.90;;;;;;5091018;28;20060;-48
2022/12/08 04:52:35;;;;;;;34.05;25.25;;;7.70;99.90;;;;;;5073865;28;20523;-47
2022/12/08 04:55:02;;;;;;;43.92;39.20;;;7.70;99.90;;;;;;5090599;28;20040;-47
2022/12/08 04:57:27;;;;;;;39.55;27.08;;;7.90;99.90;;;;;;5090784;28;20061;-47
2022/12/08 04:59:53;;;;;;;44.90;33.08;;;8.00;99.90;;;;;;5090546;28;20064;-46
2022/12/08 05:02:19;;;;;;;31.98;25.80;;;8.10;99.90;;;;;;5061845;28;20213;-47
2022/12/08 05:04:45;;;;;;;29.95;22.48;;;8.00;99.90;;;;;;5090617;28;20036;-46
2022/12/08 05:07:10;;;;;;;29.15;21.27;;;7.70;99.90;;;;;;5090490;28;20460;-48
2022/12/08 05:09:36;;;;;;;32.42;22.60;;;7.60;99.90;;;;;;5090654;28;20024;-47
2022/12/08 05:12:02;;;;;;;30.95;22.45;;;7.70;99.90;;;;;;5090554;28;20487;-47
2022/12/08 05:14:28;;;;;;;30.45;22.75;;;7.70;99.90;;;;;;5072925;28;20162;-47
2022/12/08 05:16:54;;;;;;;29.45;22.55;;;7.90;99.90;;;;;;5090477;28;20110;-47
2022/12/08 05:19:20;;;;;;;29.83;21.60;;;7.70;99.90;;;;;;5107624;28;20052;-48
2022/12/08 05:21:45;;;;;;;31.00;24.60;;;7.50;99.90;;;;;;5110825;28;20059;-47
2022/12/08 05:24:11;;;;;;;33.97;24.52;;;7.40;99.90;;;;;;5113333;28;20036;-47
2022/12/08 05:26:37;;;;;;;41.85;28.35;;;7.20;99.90;;;;;;5113333;28;20060;-46
2022/12/08 05:29:02;;;;;;;38.10;27.80;;;7.40;99.90;;;;;;5112665;28;20383;-46
2022/12/08 05:31:28;;;;;;;37.05;26.80;;;7.60;99.90;;;;;;5113240;28;20035;-47
2022/12/08 05:33:54;;;;;;;38.78;28.23;;;7.70;99.90;;;;;;5114411;28;20038;-47
2022/12/08 05:36:20;;;;;;;34.72;26.40;;;7.80;99.90;;;;;;5116883;28;20487;-48
2022/12/08 05:38:46;;;;;;;30.98;23.70;;;7.70;99.90;;;;;;5116097;28;20035;-47
2022/12/08 05:41:17;;;;;;;32.95;24.23;;;7.60;99.90;;;;;;5107989;28;20059;-48
2022/12/08 05:43:44;;;;;;;32.80;24.20;;;7.60;99.90;;;;;;5116141;28;20463;-47
2022/12/08 05:46:10;;;;;;;36.53;24.83;;;7.80;99.90;;;;;;5116251;28;20027;-47
2022/12/08 05:48:35;;;;;;;35.75;25.83;;;7.60;99.90;;;;;;5114224;28;20055;-46
2022/12/08 05:51:01;;;;;;;33.65;24.60;;;7.50;99.90;;;;;;5113185;28;20484;-47
2022/12/08 05:53:27;;;;;;;37.33;27.70;;;7.60;99.90;;;;;;5115899;28;20110;-47
2022/12/08 05:55:53;;;;;;;35.90;25.17;;;7.80;99.90;;;;;;5116113;28;20111;-47
2022/12/08 05:58:21;;;;;;;32.67;24.70;;;7.80;99.90;;;;;;5096849;28;20044;-47
2022/12/08 06:00:48;;;;;;;42.63;30.00;;;7.80;99.90;;;;;;5115605;27;20122;-47
2022/12/08 06:03:15;;;;;;;41.42;31.17;;;7.90;99.90;;;;;;5116238;28;20024;-47
2022/12/08 06:05:43;;;;;;;42.47;30.13;;;7.80;99.90;;;;;;5116294;28;20123;-46
2022/12/08 06:08:09;;;;;;;44.85;30.42;;;7.50;99.90;;;;;;5116170;28;20513;-48
2022/12/08 06:10:37;;;;;;;38.58;28.42;;;7.50;99.90;;;;;;5097218;28;20047;-47
2022/12/08 06:13:03;;;;;;;38.38;27.23;;;7.60;99.90;;;;;;5116245;28;20023;-49
2022/12/08 06:15:28;;;;;;;41.72;26.65;;;7.50;99.90;;;;;;5115967;28;20027;-47
2022/12/08 06:17:54;;;;;;;37.97;26.20;;;7.60;99.90;;;;;;5096905;28;20440;-47
2022/12/08 06:20:20;;;;;;;41.40;29.10;;;7.60;99.90;;;;;;5115477;28;20036;-47
2022/12/08 06:22:46;;;;;;;44.55;31.45;;;7.70;99.90;;;;;;5114988;28;20019;-47
2022/12/08 06:25:11;;;;;;;53.10;36.08;;;7.70;99.90;;;;;;5115080;28;20064;-47
2022/12/08 06:27:37;;;;;;;50.60;34.83;;;7.70;99.90;;;;;;5112627;28;20034;-47
2022/12/08 06:30:04;;;;;;;49.75;33.05;;;7.50;99.90;;;;;;5115698;28;20028;-48
2022/12/08 06:32:29;;;;;;;47.55;32.75;;;7.60;99.90;;;;;;5114005;28;20038;-47
2022/12/08 06:34:55;;;;;;;59.50;39.60;;;7.80;99.90;;;;;;5116095;28;20039;-47
2022/12/08 06:37:21;;;;;;;49.35;32.53;;;7.70;99.90;;;;;;5113807;28;20386;-47
2022/12/08 06:39:47;;;;;;;44.08;30.30;;;7.70;99.90;;;;;;5113216;28;20393;-47
2022/12/08 06:44:57;;;;;;;43.75;29.92;;;7.80;99.90;;;;;;5098969;28;20042;-47
2022/12/08 06:47:23;;;;;;;53.90;33.85;;;7.90;99.90;;;;;;5115671;28;20356;-47
2022/12/08 06:49:48;;;;;;;50.83;33.70;;;8.10;99.90;;;;;;5115108;28;20034;-47
2022/12/08 06:55:36;;;;;;;44.90;30.60;;;8.00;99.90;;;;;;5115170;28;20135;-47
2022/12/08 06:58:02;;;;;;;48.20;30.77;;;7.90;99.90;;;;;;5109709;28;20551;-47
2022/12/08 07:00:27;;;;;;;44.25;30.02;;;8.00;99.90;;;;;;5095437;28;20043;-47
2022/12/08 07:02:53;;;;;;;51.38;30.42;;;8.20;99.90;;;;;;5093759;28;20124;-48
2022/12/08 07:05:19;;;;;;;47.10;32.83;;;8.30;99.90;;;;;;5095273;28;20180;-47
2022/12/08 07:07:44;;;;;;;56.15;38.30;;;8.10;99.90;;;;;;5112952;28;20040;-47
2022/12/08 07:10:10;;;;;;;61.05;37.58;;;8.00;99.90;;;;;;5113142;28;20043;-47
2022/12/08 07:12:36;;;;;;;58.53;35.22;;;8.00;99.90;;;;;;5114891;28;20372;-48
2022/12/08 07:15:02;;;;;;;50.53;31.42;;;7.90;99.90;;;;;;5115139;28;20120;-47
2022/12/08 07:17:28;;;;;;;48.78;32.60;;;7.80;99.90;;;;;;5109422;27;20063;-47
2022/12/08 07:19:54;;;;;;;45.60;31.33;;;8.10;99.90;;;;;;5114248;28;20473;-47
2022/12/08 07:22:19;;;;;;;49.65;30.65;;;8.30;99.90;;;;;;5112324;28;20023;-47
2022/12/08 07:24:45;;;;;;;43.10;29.55;;;8.30;99.90;;;;;;5114077;28;20028;-47
2022/12/08 07:27:11;;;;;;;42.72;28.60;;;8.40;99.90;;;;;;5113331;28;20026;-48
2022/12/08 07:29:36;;;;;;;45.88;31.42;;;8.60;99.90;;;;;;5113747;28;20093;-47
2022/12/08 07:32:02;;;;;;;41.53;29.83;;;9.00;99.90;;;;;;5112730;28;20032;-47
2022/12/08 07:34:28;;;;;;;46.42;32.35;;;9.00;99.90;;;;;;5092989;28;20032;-47
2022/12/08 07:36:54;;;;;;;48.47;32.10;;;9.10;99.90;;;;;;5095027;28;20040;-47
2022/12/08 07:39:20;;;;;;;45.83;32.27;;;;;;;;;;5111852;28;20126;-47
2022/12/08 07:41:45;;;;;;;50.63;33.97;;;9.40;99.90;;;;;;5107529;27;20270;-47
2022/12/08 07:44:12;;;;;;;52.80;34.50;;;;;;;;;;5106815;27;20073;-47
2022/12/08 07:46:38;;;;;;;54.90;37.03;;;;;;;;;;5110251;28;20103;-48
2022/12/08 07:49:04;;;;;;;54.22;35.95;;;;;;;;;;5107253;27;20032;-47
2022/12/08 07:51:30;;;;;;;47.90;33.17;;;9.60;99.90;;;;;;5112910;28;20034;-47
2022/12/08 07:53:55;;;;;;;43.47;30.52;;;9.50;99.90;;;;;;5103505;27;20538;-49
2022/12/08 07:56:21;;;;;;;42.20;32.22;;;9.20;99.90;;;;;;5099505;27;20023;-48
2022/12/08 07:58:47;;;;;;;46.85;31.58;;;9.20;99.90;;;;;;5108849;28;20055;-47
2022/12/08 08:01:28;;;;;;;42.22;32.95;;;9.40;99.90;;;;;;5083685;28;20079;-48
2022/12/08 08:03:55;;;;;;;47.10;34.60;;;9.40;99.90;;;;;;5110638;28;20085;-45
2022/12/08 08:06:21;;;;;;;51.42;36.50;;;9.60;99.90;;;;;;5108367;27;20024;-50
2022/12/08 08:08:47;;;;;;;51.22;35.75;;;9.30;99.90;;;;;;5090747;28;20040;-48
2022/12/08 08:11:13;;;;;;;49.78;37.10;;;9.30;99.90;;;;;;5101148;28;20057;-46
2022/12/08 08:13:39;;;;;;;48.42;32.38;;;9.40;99.90;;;;;;5092897;28;20390;-48
2022/12/08 08:16:07;;;;;;;44.22;33.33;;;9.80;99.90;;;;;;5089209;28;20045;-48
2022/12/08 08:18:34;;;;;;;41.88;30.58;;;9.90;99.90;;;;;;5113587;28;20024;-47
2022/12/08 08:21:00;;;;;;;41.17;30.05;;;10.00;99.90;;;;;;5112582;28;20040;-48
2022/12/08 08:23:26;;;;;;;44.20;30.77;;;9.70;99.90;;;;;;5111183;28;20080;-48
2022/12/08 08:25:51;;;;;;;37.95;29.40;;;9.70;99.90;;;;;;5105841;28;20391;-49
2022/12/08 08:28:17;;;;;;;33.92;25.85;;;9.90;99.90;;;;;;5114583;27;20047;-51
2022/12/08 08:30:45;;;;;;;39.47;27.73;;;9.90;99.90;;;;;;5094918;28;20501;-50
2022/12/08 08:33:10;;;;;;;36.58;27.92;;;10.30;99.90;;;;;;5133274;27;20106;-50
2022/12/08 08:35:36;;;;;;;36.20;26.17;;;10.50;99.90;;;;;;5133965;27;20156;-51
2022/12/08 08:38:02;;;;;;;38.65;29.23;;;10.00;99.90;;;;;;5133812;27;20027;-50
2022/12/08 08:40:28;;;;;;;35.30;26.42;;;10.30;99.90;;;;;;5133432;28;20035;-52
2022/12/08 08:42:54;;;;;;;32.83;24.27;;;;;;;;;;5094968;28;20013;-50
2022/12/08 08:45:19;;;;;;;41.13;28.20;;;10.60;99.90;;;;;;5098965;28;20042;-50
2022/12/08 08:48:09;;;;;;;44.40;29.33;;;10.20;99.90;;;;;;5100510;28;20377;-50
2022/12/08 08:57:17;;;;;;;40.40;28.45;;;9.50;99.90;;;;;;5085526;28;20486;-50
2022/12/08 08:59:43;;;;;;;38.67;28.30;;;9.40;99.90;;;;;;5067518;28;20135;-50
2022/12/08 09:02:17;;;;;;;30.83;20.85;;;9.50;99.90;;;;;;5073735;28;20044;-51
2022/12/08 09:04:43;;;;;;;37.85;27.80;;;9.20;99.90;;;;;;5078948;28;20511;-50
2022/12/08 09:07:09;;;;;;;39.78;25.95;;;9.00;99.90;;;;;;5073379;28;20029;-50
2022/12/08 09:09:35;;;;;;;25.65;18.30;;;9.00;99.90;;;;;;5073282;28;20056;-50
2022/12/08 09:12:01;;;;;;;44.00;29.27;;;8.90;99.90;;;;;;5083482;28;20524;-51
2022/12/08 09:14:27;;;;;;;37.47;26.05;;;9.00;99.90;;;;;;5031603;28;20486;-51
2022/12/08 09:16:52;;;;;;;46.85;31.00;;;9.00;99.90;;;;;;5045711;28;20039;-50
2022/12/08 09:19:18;;;;;;;47.78;30.67;;;9.10;99.90;;;;;;5084285;28;20044;-51
2022/12/08 09:21:44;;;;;;;50.03;30.98;;;9.00;99.90;;;;;;5083788;28;20062;-50
2022/12/08 09:24:14;;;;;;;43.28;29.58;;;8.90;99.90;;;;;;5081635;28;20027;-50
2022/12/08 09:26:43;;;;;;;33.53;22.10;;;8.80;99.90;;;;;;5078691;28;20508;-50
2022/12/08 09:29:10;;;;;;;51.80;31.23;;;8.60;99.90;;;;;;5080159;28;20036;-49
2022/12/08 09:31:36;;;;;;;49.80;31.58;;;8.70;99.90;;;;;;5078952;28;20036;-50
2022/12/08 09:34:03;;;;;;;46.17;29.55;;;8.50;99.90;;;;;;5090497;28;20047;-50
2022/12/08 09:36:29;;;;;;;43.38;29.85;;;8.50;99.90;;;;;;5100674;28;20027;-50
2022/12/08 09:38:55;;;;;;;51.42;35.42;;;8.50;99.90;;;;;;5099576;28;20024;-51
2022/12/08 09:41:44;;;;;;;41.90;28.02;;;8.80;99.90;;;;;;5105054;28;20051;-51
2022/12/08 09:44:36;;;;;;;44.63;29.08;;;8.40;99.90;;;;;;5107764;28;20036;-50
2022/12/08 09:47:11;;;;;;;48.65;31.00;;;8.30;99.90;;;;;;5092850;28;20522;-49
2022/12/08 09:49:41;;;;;;;49.08;34.20;;;8.40;99.90;;;;;;5092913;28;20036;-50
2022/12/08 09:52:25;;;;;;;47.28;32.97;;;8.80;99.90;;;;;;5092469;28;20127;-52
2022/12/08 09:54:51;;;;;;;48.67;32.70;;;8.90;99.90;;;;;;5066767;28;20032;-51
2022/12/08 09:57:21;;;;;;;47.83;31.58;;;9.20;99.90;;;;;;5033939;28;20471;-51
2022/12/08 10:00:02;;;;;;;45.45;28.77;;;9.30;99.90;;;;;;5092278;28;20023;-50
2022/12/08 10:02:29;;;;;;;43.17;32.00;;;9.20;99.90;;;;;;5092206;28;20483;-49
2022/12/08 10:04:56;;;;;;;46.65;31.00;;;9.40;99.90;;;;;;5091280;28;20209;-51
2022/12/08 10:08:06;;;;;;;44.00;32.17;;;9.50;99.90;;;;;;5044437;28;20454;-51
2022/12/08 10:10:40;;;;;;;47.03;34.15;;;9.40;99.90;;;;;;4993384;28;20105;-49
2022/12/08 10:13:18;;;;;;;50.35;35.75;;;9.10;99.90;;;;;;4989196;28;20038;-50
2022/12/08 10:15:57;;;;;;;43.88;32.20;;;9.10;99.90;;;;;;4993581;28;20038;-47
2022/12/08 10:18:27;;;;;;;55.70;37.85;;;9.30;99.90;;;;;;4984534;28;20046;-50
2022/12/08 10:20:58;;;;;;;47.38;35.67;;;9.40;99.90;;;;;;4987808;28;20054;-50
2022/12/08 10:23:34;;;;;;;41.80;30.75;;;9.70;99.90;;;;;;4998969;28;20034;-46
2022/12/08 10:26:14;;;;;;;37.15;27.52;;;9.80;99.90;;;;;;5032933;28;20029;-46
2022/12/08 10:28:40;;;;;;;39.63;28.67;;;9.70;99.90;;;;;;5032626;28;20057;-47
2022/12/08 10:31:14;;;;;;;40.38;29.38;;;9.50;99.90;;;;;;5033214;28;20030;-46
2022/12/08 10:33:39;;;;;;;50.17;33.47;;;9.50;99.90;;;;;;5032329;28;20112;-46
2022/12/08 10:36:05;;;;;;;54.17;37.05;;;9.80;99.90;;;;;;5032489;28;20124;-46
2022/12/08 10:38:36;;;;;;;62.65;39.38;;;10.10;99.90;;;;;;5032432;28;20111;-47
2022/12/08 10:41:07;;;;;;;44.70;29.55;;;10.30;99.90;;;;;;5032951;28;20092;-46
2022/12/08 10:43:42;;;;;;;32.88;24.25;;;9.90;99.90;;;;;;5031871;28;20770;-46
2022/12/08 10:46:13;;;;;;;33.33;26.00;;;9.50;99.90;;;;;;5034387;28;20055;-46
2022/12/08 10:48:55;;;;;;;36.65;24.30;;;9.50;99.90;;;;;;5101428;28;20024;-46
2022/12/08 10:51:22;;;;;;;32.67;23.58;;;9.30;99.90;;;;;;5099918;28;20468;-46
2022/12/08 10:53:48;;;;;;;33.38;23.90;;;9.30;99.90;;;;;;5107954;28;20070;-46
2022/12/08 10:56:15;;;;;;;33.00;21.98;;;9.30;99.90;;;;;;5104347;28;20048;-47
2022/12/08 10:58:43;;;;;;;31.02;20.35;;;9.00;99.90;;;;;;5122013;27;20042;-46
2022/12/08 11:01:26;;;;;;;35.80;25.92;;;8.80;99.90;;;;;;5105772;28;20031;-47
2022/12/08 11:03:59;;;;;;;31.30;21.98;;;8.70;99.90;;;;;;5102051;28;20043;-47
2022/12/08 11:06:28;;;;;;;30.65;22.08;;;8.80;99.90;;;;;;5100923;28;20115;-49
2022/12/08 11:08:59;;;;;;;48.45;32.30;;;8.70;99.90;;;;;;5090217;28;20036;-48
2022/12/08 11:11:43;;;;;;;50.47;34.08;;;8.70;99.90;;;;;;5106630;28;20102;-48
2022/12/08 11:14:17;;;;;;;47.95;32.80;;;8.50;99.90;;;;;;5106874;28;20024;-48
2022/12/08 11:16:43;;;;;;;41.33;26.00;;;8.50;99.90;;;;;;5101909;28;20483;-49
2022/12/08 11:19:14;;;;;;;50.33;32.80;;;8.40;99.90;;;;;;5104528;27;20027;-51
2022/12/08 11:21:41;;;;;;;54.33;37.45;;;8.30;99.90;;;;;;5097216;27;20048;-50
2022/12/08 11:24:23;;;;;;;54.80;37.95;;;8.40;99.90;;;;;;5110405;28;20376;-50
2022/12/08 11:27:01;;;;;;;;;;;8.50;99.90;;;;;;5105059;27;20043;-47
2022/12/08 11:29:29;;;;;;;43.20;27.58;;;8.50;99.90;;;;;;5100003;28;19916;-49
2022/12/08 11:32:06;;;;;;;39.53;27.05;;;8.30;99.90;;;;;;5074379;28;20028;-49
2022/12/08 11:34:47;;;;;;;61.03;39.25;;;8.20;99.90;;;;;;5104593;28;20035;-50
2022/12/08 11:37:34;;;;;;;41.53;26.45;;;8.50;99.90;;;;;;5098855;28;20023;-51
2022/12/08 11:40:04;;;;;;;36.67;21.58;;;8.50;99.90;;;;;;5102655;28;20028;-51
2022/12/08 11:42:41;;;;;;;47.63;29.70;;;8.30;99.90;;;;;;5083450;28;20042;-51
2022/12/08 11:45:15;;;;;;;46.63;32.03;;;8.30;99.90;;;;;;5083762;28;20046;-51
2022/12/08 11:47:50;;;;;;;51.25;33.92;;;8.40;99.90;;;;;;5097740;28;20042;-51
2022/12/08 11:50:23;;;;;;;52.72;35.20;;;8.50;99.90;;;;;;5104975;28;20031;-51
2022/12/08 11:52:52;;;;;;;56.35;34.78;;;8.80;99.90;;;;;;5103087;28;20031;-51
2022/12/08 11:55:33;;;;;;;51.85;34.00;;;;;;;;;;5087177;28;20050;-50
2022/12/08 11:58:10;;;;;;;90.97;56.88;;;9.30;99.90;;;;;;5104095;28;20039;-51
2022/12/08 12:00:36;;;;;;;51.53;35.38;;;9.50;99.90;;;;;;5103288;28;20394;-51
2022/12/08 12:03:15;;;;;;;51.13;31.85;;;9.60;99.90;;;;;;5105952;28;20044;-51
2022/12/08 12:05:41;;;;;;;48.25;32.60;;;9.60;99.90;;;;;;5109231;28;20591;-51
2022/12/08 12:08:09;;;;;;;44.55;31.35;;;;;;;;;;5104621;28;20039;-51
2022/12/08 12:10:57;;;;;;;53.05;35.58;;;10.00;99.90;;;;;;5105024;28;20133;-51
2022/12/08 12:13:36;;;;;;;52.78;36.92;;;10.00;99.90;;;;;;5106070;28;20479;-51
2022/12/08 12:16:10;;;;;;;48.90;34.25;;;9.90;99.90;;;;;;5106475;28;20030;-51
2022/12/08 12:18:45;;;;;;;50.00;33.63;;;9.80;99.90;;;;;;5105954;28;20053;-51
2022/12/08 12:21:21;;;;;;;52.08;35.05;;;;;;;;;;5102246;28;20670;-51
2022/12/08 12:23:53;;;;;;;47.95;33.95;;;;;;;;;;5111272;28;20023;-50
2022/12/08 12:26:22;;;;;;;68.25;46.63;;;10.30;99.90;;;;;;5105517;28;20532;-51
2022/12/08 12:28:51;;;;;;;50.75;38.15;;;10.30;99.90;;;;;;5104689;28;20172;-51
2022/12/08 12:31:21;;;;;;;67.32;44.65;;;10.40;99.90;;;;;;5108050;28;20020;-51
2022/12/08 12:33:49;;;;;;;45.30;31.58;;;10.40;99.90;;;;;;5104103;28;20028;-51
2022/12/08 12:36:15;;;;;;;48.08;32.33;;;10.40;99.90;;;;;;5106953;28;20023;-50
2022/12/08 12:39:00;;;;;;;49.03;35.28;;;10.40;99.90;;;;;;5108595;28;20039;-51
2022/12/08 12:41:45;;;;;;;73.22;46.47;;;10.40;99.90;;;;;;5109143;28;20035;-51
2022/12/08 12:44:11;;;;;;;64.97;45.83;;;10.40;99.90;;;;;;5104971;28;20043;-51
2022/12/08 12:47:03;;;;;;;67.00;45.78;;;10.30;99.90;;;;;;5104978;28;20062;-51
2022/12/08 12:49:44;;;;;;;77.93;49.05;;;10.00;99.90;;;;;;5096975;28;20035;-51
2022/12/08 12:52:19;;;;;;;53.28;32.80;;;9.50;99.90;;;;;;5109601;28;20034;-50
2022/12/08 12:55:10;;;;;;;50.78;32.47;;;9.20;99.90;;;;;;5107107;28;20417;-51
2022/12/08 12:57:52;;;;;;;44.50;26.55;;;9.00;99.90;;;;;;5105544;28;20024;-51
2022/12/08 13:00:23;;;;;;;48.67;29.67;;;8.60;99.90;;;;;;5109960;28;20050;-50
2022/12/08 13:02:52;;;;;;;49.80;28.83;;;8.80;99.90;;;;;;5105728;28;20040;-51
2022/12/08 13:05:27;;;;;;;48.92;30.85;;;8.50;99.90;;;;;;5105389;28;20394;-51
2022/12/08 13:07:56;;;;;;;47.33;30.02;;;8.70;99.90;;;;;;5106622;28;20024;-51
2022/12/08 13:11:04;;;;;;;47.78;31.02;;;8.90;99.90;;;;;;5082280;28;21098;-51
2022/12/08 13:13:30;;;;;;;49.15;29.73;;;8.90;99.90;;;;;;5097546;28;20361;-51